Time;durP1;ratioP1;P1;durP2;ratioP2;P2;SDS_P1;SDS_P2;PMS_P1;PMS_P2;Temp;Humidity;BMP_temperature;BMP_pressure;BME280_temperature;BME280_humidity;BME280_pressure;Samples;Min_cycle;Max_cycle;Signal;HPM_P1;HPM_P2
2023/12/11 00:02:09;;;;;;;50.38;46.35;;;4.90;86.80;;;;;;12519549;28;20440;-72
2023/12/11 00:08:10;;;;;;;44.60;38.83;;;5.30;87.00;;;;;;12552768;28;20432;-73
2023/12/11 00:14:12;;;;;;;60.35;54.90;;;5.70;86.60;;;;;;12544757;28;20045;-72
2023/12/11 00:20:14;;;;;;;61.17;56.55;;;5.90;86.30;;;;;;12561917;28;20040;-72
2023/12/11 00:26:16;;;;;;;82.15;77.43;;;6.00;86.20;;;;;;12561666;28;20044;-73
2023/12/11 00:32:17;;;;;;;51.53;47.97;;;6.10;85.90;;;;;;12561320;28;20033;-72
2023/12/11 00:38:19;;;;;;;83.60;79.05;;;5.80;86.00;;;;;;12561137;28;20458;-72
2023/12/11 00:44:21;;;;;;;98.13;93.10;;;6.00;86.30;;;;;;12543137;28;20033;-72
2023/12/11 00:50:22;;;;;;;100.30;95.13;;;6.30;86.00;;;;;;12560416;28;20032;-72
2023/12/11 00:56:24;;;;;;;97.07;91.65;;;6.50;85.60;;;;;;12560249;28;20076;-72
2023/12/11 01:02:26;;;;;;;89.57;84.55;;;6.60;85.70;;;;;;12559958;28;20033;-72
2023/12/11 01:09:04;;;;;;;87.55;82.70;;;6.50;85.80;;;;;;12542629;28;20356;-72
2023/12/11 01:15:06;;;;;;;73.43;69.53;;;6.20;85.30;;;;;;12559327;28;20032;-72
2023/12/11 01:21:08;;;;;;;43.00;40.05;;;5.90;85.60;;;;;;12557928;28;20025;-72
2023/12/11 01:27:10;;;;;;;39.45;36.33;;;5.50;85.70;;;;;;12558755;28;20036;-72
2023/12/11 01:33:11;;;;;;;74.82;70.28;;;5.60;86.20;;;;;;12540802;28;20033;-75
2023/12/11 01:39:13;;;;;;;76.35;72.00;;;6.00;86.00;;;;;;12558249;28;20363;-75
2023/12/11 01:45:15;;;;;;;77.43;73.15;;;6.10;85.50;;;;;;12557917;28;20032;-75
2023/12/11 01:51:18;;;;;;;55.85;52.13;;;5.90;85.40;;;;;;12539706;28;20071;-75
2023/12/11 01:57:19;;;;;;;86.25;81.18;;;6.20;86.20;;;;;;12557384;28;20358;-75
2023/12/11 02:03:22;;;;;;;101.22;96.15;;;6.50;85.60;;;;;;12539364;28;20351;-75
2023/12/11 02:09:26;;;;;;;141.52;134.23;;;6.60;85.40;;;;;;12522626;28;20033;-75
2023/12/11 02:15:40;;;;;;;110.30;104.90;;;6.90;85.50;;;;;;12539435;28;20060;-75
2023/12/11 02:21:42;;;;;;;141.38;134.60;;;7.00;84.60;;;;;;12556260;28;20029;-75
2023/12/11 02:27:44;;;;;;;134.85;128.73;;;6.70;84.80;;;;;;12555941;28;20453;-75
2023/12/11 02:33:45;;;;;;;123.05;117.07;;;6.70;84.60;;;;;;12537597;28;20321;-72
2023/12/11 02:39:47;;;;;;;133.13;126.28;;;6.40;84.90;;;;;;12555399;28;20447;-72
2023/12/11 02:45:49;;;;;;;131.57;124.65;;;6.70;85.50;;;;;;12555230;28;20458;-72
2023/12/11 02:51:50;;;;;;;165.93;157.82;;;7.10;84.80;;;;;;12554693;28;20037;-72
2023/12/11 02:58:00;;;;;;;158.65;151.48;;;7.20;84.70;;;;;;12554628;28;20028;-72
2023/12/11 03:04:01;;;;;;;;;;;7.20;84.20;;;;;;12554883;28;20509;-72
2023/12/11 03:10:03;;;;;;;52.22;48.80;;;6.60;84.40;;;;;;12536565;28;19920;-72
2023/12/11 03:16:05;;;;;;;65.53;61.60;;;6.20;84.90;;;;;;12554113;28;20052;-72
2023/12/11 03:22:07;;;;;;;85.80;81.35;;;5.80;85.40;;;;;;12536256;28;20025;-72
2023/12/11 03:28:09;;;;;;;85.22;80.28;;;6.20;85.90;;;;;;12535989;28;20446;-72
2023/12/11 03:34:10;;;;;;;85.07;80.05;;;6.20;85.50;;;;;;12553651;28;20033;-72
2023/12/11 03:40:12;;;;;;;77.63;73.25;;;6.50;85.50;;;;;;12535760;28;20041;-72
2023/12/11 03:46:14;;;;;;;93.07;87.97;;;6.50;85.00;;;;;;12557852;28;20336;-72
2023/12/11 03:52:15;;;;;;;125.82;119.13;;;6.80;85.40;;;;;;12529373;28;20044;-72
2023/12/11 03:58:20;;;;;;;145.27;138.05;;;7.00;84.60;;;;;;12545229;28;20471;-72
2023/12/11 04:04:23;;;;;;;173.93;165.45;;;7.10;84.40;;;;;;12562665;28;20040;-72
2023/12/11 04:10:24;;;;;;;108.13;102.75;;;7.20;84.50;;;;;;12562358;28;20036;-72
2023/12/11 04:16:26;;;;;;;153.63;146.38;;;7.20;85.30;;;;;;12544683;28;20037;-73
2023/12/11 04:22:29;;;;;;;96.70;91.43;;;7.20;84.80;;;;;;12561928;28;20351;-73
2023/12/11 04:28:32;;;;;;;89.88;84.95;;;7.30;83.90;;;;;;12561587;28;20040;-73
2023/12/11 04:34:33;;;;;;;143.05;136.30;;;7.30;83.90;;;;;;12561250;28;20033;-73
2023/12/11 04:40:35;;;;;;;95.95;90.82;;;7.30;83.40;;;;;;12560983;28;20044;-72
2023/12/11 04:46:36;;;;;;;136.43;130.05;;;7.30;83.20;;;;;;12560807;28;20029;-72
2023/12/11 04:52:38;;;;;;;162.88;155.13;;;7.30;82.90;;;;;;12560301;28;20033;-72
2023/12/11 04:58:40;;;;;;;127.00;120.95;;;7.20;82.80;;;;;;12559952;28;20348;-73
2023/12/11 05:04:41;;;;;;;185.50;176.65;;;7.20;83.00;;;;;;12559936;28;20044;-73
2023/12/11 05:10:43;;;;;;;147.38;139.88;;;7.20;82.90;;;;;;12541864;28;20047;-72
2023/12/11 05:16:44;;;;;;;195.73;186.77;;;7.20;83.10;;;;;;12559428;28;20029;-72
2023/12/11 05:22:46;;;;;;;154.32;146.90;;;7.40;83.30;;;;;;12541527;28;20474;-73
2023/12/11 05:28:48;;;;;;;125.13;118.82;;;6.80;83.20;;;;;;12541142;28;20036;-73
2023/12/11 05:34:49;;;;;;;106.03;100.13;;;6.70;83.90;;;;;;12541533;28;20025;-72
2023/12/11 05:40:51;;;;;;;95.43;90.22;;;6.80;84.10;;;;;;12540567;28;20040;-72
2023/12/11 05:46:55;;;;;;;98.35;92.88;;;7.00;83.70;;;;;;12540298;28;20435;-72
2023/12/11 05:52:57;;;;;;;110.47;104.72;;;6.70;83.60;;;;;;12539804;28;20056;-72
2023/12/11 05:59:03;;;;;;;58.88;55.38;;;6.20;83.70;;;;;;12557443;28;20044;-72
2023/12/11 06:05:08;;;;;;;56.10;52.60;;;6.20;83.90;;;;;;12523301;28;20041;-72
2023/12/11 06:11:13;;;;;;;56.60;53.05;;;6.10;84.10;;;;;;12538675;28;20035;-72
2023/12/11 06:17:15;;;;;;;80.20;75.47;;;6.20;84.40;;;;;;12538906;28;20025;-72
2023/12/11 06:23:16;;;;;;;68.93;64.85;;;6.20;83.80;;;;;;12538537;28;20044;-73
2023/12/11 06:29:18;;;;;;;59.03;55.63;;;5.90;84.30;;;;;;12538213;28;20044;-72
2023/12/11 06:35:20;;;;;;;58.38;54.30;;;5.90;84.20;;;;;;12538703;28;20029;-72
2023/12/11 06:41:21;;;;;;;82.55;77.78;;;5.80;84.70;;;;;;12555450;28;20431;-72
2023/12/11 06:47:23;;;;;;;86.93;81.63;;;6.40;84.80;;;;;;12555854;28;20124;-72
2023/12/11 06:53:25;;;;;;;132.75;126.15;;;6.80;84.10;;;;;;12523608;22;20052;-72
2023/12/11 06:59:30;;;;;;;125.38;119.15;;;7.10;83.50;;;;;;12554416;28;20041;-72
2023/12/11 07:05:32;;;;;;;94.72;88.65;;;6.90;83.10;;;;;;12536641;28;20033;-72
2023/12/11 07:11:34;;;;;;;109.60;103.47;;;6.30;83.70;;;;;;12553934;28;20040;-72
2023/12/11 07:17:35;;;;;;;74.38;70.07;;;6.30;84.40;;;;;;12553872;28;20432;-72
2023/12/11 07:23:38;;;;;;;78.70;74.53;;;6.10;84.40;;;;;;12553931;28;20037;-72
2023/12/11 07:29:44;;;;;;;64.32;59.50;;;6.10;84.80;;;;;;12522865;28;20045;-72
2023/12/11 07:35:46;;;;;;;68.80;64.00;;;6.10;84.80;;;;;;12533667;28;20048;-72
2023/12/11 07:41:47;;;;;;;95.10;89.60;;;6.00;85.00;;;;;;12545522;28;20475;-72
2023/12/11 07:47:49;;;;;;;92.38;87.63;;;6.20;85.10;;;;;;12503792;28;20030;-73
2023/12/11 07:53:52;;;;;;;101.93;95.63;;;6.40;85.40;;;;;;12503784;28;20444;-72
2023/12/11 07:59:54;;;;;;;121.65;115.22;;;6.60;85.20;;;;;;12503744;28;20351;-72
2023/12/11 08:05:56;;;;;;;151.40;143.40;;;7.10;85.10;;;;;;12503580;28;20343;-73
2023/12/11 08:11:57;;;;;;;191.63;181.90;;;7.50;84.40;;;;;;12503383;28;20068;-72
2023/12/11 08:17:59;;;;;;;197.27;187.07;;;7.40;84.50;;;;;;12503210;28;20029;-72
2023/12/11 08:24:01;;;;;;;115.88;109.85;;;7.50;84.40;;;;;;12504193;28;20029;-73
2023/12/11 08:30:02;;;;;;;182.18;172.70;;;7.50;84.20;;;;;;12514284;28;20061;-72
2023/12/11 08:36:05;;;;;;;189.48;180.82;;;7.20;84.50;;;;;;12554254;28;20447;-73
2023/12/11 08:42:06;;;;;;;159.82;151.07;;;7.20;84.70;;;;;;12554767;28;20033;-72
2023/12/11 08:48:08;;;;;;;192.05;182.57;;;7.20;84.80;;;;;;12553566;28;20040;-72
2023/12/11 08:54:10;;;;;;;167.02;158.77;;;7.20;85.50;;;;;;12561204;28;20036;-72
2023/12/11 09:00:13;;;;;;;198.32;188.75;;;7.20;84.80;;;;;;12519757;28;20428;-72
2023/12/11 09:06:14;;;;;;;171.63;163.07;;;7.10;85.20;;;;;;12510457;28;20037;-72
2023/12/11 09:12:16;;;;;;;169.63;160.65;;;7.30;85.60;;;;;;12476275;28;20388;-72
2023/12/11 09:18:18;;;;;;;92.43;87.75;;;7.70;85.30;;;;;;12512232;28;20036;-72
2023/12/11 09:24:20;;;;;;;152.75;145.63;;;7.80;84.80;;;;;;12549047;28;20308;-72
2023/12/11 09:30:21;;;;;;;129.70;123.53;;;7.50;84.80;;;;;;12558798;28;20131;-72
2023/12/11 09:36:23;;;;;;;179.15;169.98;;;7.20;85.40;;;;;;12558688;28;20455;-72
2023/12/11 09:42:26;;;;;;;199.45;189.63;;;7.20;85.70;;;;;;12557227;28;20436;-72
2023/12/11 09:48:28;;;;;;;155.18;147.35;;;7.30;85.90;;;;;;12540527;28;20048;-76
2023/12/11 09:54:30;;;;;;;100.15;94.55;;;7.80;86.10;;;;;;12557769;28;20325;-75
2023/12/11 10:00:32;;;;;;;53.72;50.30;;;8.20;85.40;;;;;;12555876;28;20036;-75
2023/12/11 10:06:34;;;;;;;94.25;88.43;;;8.10;85.40;;;;;;12539101;28;20036;-75
2023/12/11 10:12:40;;;;;;;40.50;37.30;;;8.10;85.80;;;;;;12540073;28;20028;-75
2023/12/11 10:18:51;;;;;;;130.07;123.22;;;7.90;85.80;;;;;;12539843;28;20351;-76
2023/12/11 10:24:53;;;;;;;145.35;137.07;;;7.70;85.70;;;;;;12556485;28;20040;-75
2023/12/11 10:30:55;;;;;;;57.38;52.92;;;7.90;86.40;;;;;;12554116;28;20325;-75
2023/12/11 10:36:56;;;;;;;45.67;41.67;;;8.20;85.90;;;;;;12538556;28;20045;-74
2023/12/11 10:43:00;;;;;;;49.13;45.08;;;8.10;86.00;;;;;;12521553;28;20045;-75
2023/12/11 10:49:02;;;;;;;58.85;54.40;;;8.00;86.10;;;;;;12538281;28;20041;-75
2023/12/11 10:55:04;;;;;;;96.35;90.30;;;8.00;86.20;;;;;;12532544;28;20040;-74
2023/12/11 11:01:12;;;;;;;106.85;100.32;;;8.20;86.70;;;;;;12551167;28;20044;-75
2023/12/11 11:07:34;;;;;;;45.08;41.03;;;8.20;86.20;;;;;;12554510;28;20462;-75
2023/12/11 11:14:17;;;;;;;41.75;38.15;;;8.10;86.30;;;;;;12554149;28;20029;-74
2023/12/11 11:20:19;;;;;;;43.03;39.08;;;8.20;86.50;;;;;;12536778;28;20033;-75
2023/12/11 11:26:35;;;;;;;42.10;34.97;;;8.20;86.40;;;;;;12553869;28;20040;-74
2023/12/11 11:32:58;;;;;;;36.90;30.60;;;8.40;86.60;;;;;;12553799;28;20028;-75
2023/12/11 11:39:05;;;;;;;36.67;31.17;;;8.90;86.40;;;;;;12553647;28;20033;-73
2023/12/11 11:45:07;;;;;;;35.00;30.15;;;9.20;87.00;;;;;;12553679;28;20355;-73
2023/12/11 11:51:09;;;;;;;30.40;24.95;;;9.50;86.20;;;;;;12535463;28;20029;-75
2023/12/11 11:57:11;;;;;;;31.25;26.77;;;9.50;86.20;;;;;;12553103;28;20359;-73
2023/12/11 12:03:13;;;;;;;41.17;32.50;;;9.50;86.20;;;;;;12550281;28;20043;-74
2023/12/11 12:09:18;;;;;;;35.13;29.33;;;9.50;86.30;;;;;;12559218;28;20332;-74
2023/12/11 12:15:20;;;;;;;38.92;27.50;;;9.50;86.70;;;;;;12544281;28;20028;-73
2023/12/11 12:21:22;;;;;;;30.38;22.83;;;9.60;86.20;;;;;;12543918;28;20041;-74
2023/12/11 12:27:25;;;;;;;33.40;27.15;;;9.50;86.30;;;;;;12561885;28;20348;-74
2023/12/11 12:33:27;;;;;;;26.88;22.40;;;9.30;86.50;;;;;;12561544;28;20029;-74
2023/12/11 12:39:30;;;;;;;28.73;22.88;;;9.20;86.60;;;;;;12561400;28;20037;-74
2023/12/11 12:45:34;;;;;;;29.13;23.67;;;9.10;86.90;;;;;;12561096;28;20029;-74
2023/12/11 12:51:52;;;;;;;33.08;24.13;;;9.00;86.60;;;;;;12560603;28;20056;-74
2023/12/11 12:57:54;;;;;;;33.22;27.77;;;8.90;87.00;;;;;;12560458;28;20032;-74
2023/12/11 13:04:00;;;;;;;27.75;21.08;;;8.80;86.90;;;;;;12509793;28;20055;-74
2023/12/11 13:10:12;;;;;;;33.40;25.30;;;9.00;87.20;;;;;;12559768;28;20033;-74
2023/12/11 13:16:16;;;;;;;29.95;24.60;;;9.20;87.10;;;;;;12509067;28;20041;-74
2023/12/11 13:22:19;;;;;;;43.10;32.17;;;9.20;87.00;;;;;;12559248;28;20063;-74
2023/12/11 13:28:20;;;;;;;39.42;33.20;;;9.20;86.50;;;;;;12559635;28;20312;-74
2023/12/11 13:34:22;;;;;;;35.22;31.27;;;9.00;86.50;;;;;;12558669;28;20451;-74
2023/12/11 13:40:24;;;;;;;40.58;31.63;;;9.00;86.70;;;;;;12540760;28;20029;-75
2023/12/11 13:46:25;;;;;;;30.75;26.42;;;8.90;86.50;;;;;;12558183;28;20036;-74
2023/12/11 13:52:27;;;;;;;41.53;30.77;;;8.90;86.70;;;;;;12523671;28;20037;-75
2023/12/11 13:58:29;;;;;;;47.80;35.35;;;8.90;86.60;;;;;;12557574;28;20036;-75
2023/12/11 14:04:31;;;;;;;37.03;33.15;;;8.90;86.50;;;;;;12557315;28;20352;-75
2023/12/11 14:10:35;;;;;;;51.35;39.03;;;8.90;86.30;;;;;;12556965;28;20439;-75
2023/12/11 14:16:37;;;;;;;40.33;30.60;;;8.80;86.00;;;;;;12556693;28;20056;-75
2023/12/11 14:22:40;;;;;;;39.60;30.15;;;8.80;86.20;;;;;;12556572;28;20029;-75
2023/12/11 14:28:42;;;;;;;33.53;27.60;;;8.90;86.30;;;;;;12555739;28;20040;-75
2023/12/11 14:34:43;;;;;;;34.40;24.35;;;9.00;86.30;;;;;;12555901;28;20040;-74
2023/12/11 14:40:45;;;;;;;28.75;21.63;;;9.20;86.50;;;;;;12537895;28;20036;-74
2023/12/11 14:46:47;;;;;;;31.15;20.55;;;9.20;86.20;;;;;;12555228;28;20033;-74
2023/12/11 14:52:52;;;;;;;30.05;20.10;;;9.20;86.40;;;;;;12542724;22;20053;-74
2023/12/11 14:58:54;;;;;;;31.23;23.95;;;9.20;86.70;;;;;;12520820;28;20037;-74
2023/12/11 15:04:56;;;;;;;23.85;20.05;;;9.40;86.50;;;;;;12554543;28;20044;-74
2023/12/11 15:10:58;;;;;;;29.85;24.80;;;9.40;86.80;;;;;;12553983;28;20051;-74
2023/12/11 15:16:59;;;;;;;26.38;22.13;;;9.50;86.60;;;;;;12536218;28;20044;-74
2023/12/11 15:23:02;;;;;;;28.30;23.08;;;9.60;86.30;;;;;;12554015;28;20036;-74
2023/12/11 15:29:07;;;;;;;27.27;22.58;;;9.60;86.60;;;;;;12553874;28;20443;-74
2023/12/11 15:35:08;;;;;;;32.63;23.50;;;9.50;86.60;;;;;;12535983;28;20036;-74
2023/12/11 15:41:11;;;;;;;26.17;21.85;;;9.50;86.40;;;;;;12538887;28;20041;-74
2023/12/11 15:47:13;;;;;;;27.23;22.42;;;9.40;86.70;;;;;;12563797;28;20032;-74
2023/12/11 15:53:14;;;;;;;26.48;22.00;;;9.30;86.90;;;;;;12545552;28;20032;-74
2023/12/11 15:59:17;;;;;;;32.03;20.65;;;9.30;86.70;;;;;;12545293;28;20036;-74
2023/12/11 16:05:19;;;;;;;17.85;14.07;;;9.30;86.80;;;;;;12562923;28;20343;-74
2023/12/11 16:11:21;;;;;;;25.95;23.20;;;9.20;87.00;;;;;;12562511;28;20043;-74
2023/12/11 16:17:22;;;;;;;25.40;20.80;;;9.40;86.90;;;;;;12562391;28;20025;-74
2023/12/11 16:23:25;;;;;;;30.75;24.48;;;9.50;86.70;;;;;;12544376;28;20448;-72
2023/12/11 16:29:27;;;;;;;34.28;23.20;;;9.20;86.70;;;;;;12560586;28;20375;-72
2023/12/11 16:35:29;;;;;;;41.97;32.65;;;9.20;86.90;;;;;;12561460;28;20036;-72
2023/12/11 16:41:31;;;;;;;37.28;26.45;;;9.10;86.80;;;;;;12561068;28;20028;-72
2023/12/11 16:47:33;;;;;;;35.05;27.58;;;9.20;86.80;;;;;;12560895;28;20329;-72
2023/12/11 16:53:35;;;;;;;35.20;27.95;;;9.20;86.90;;;;;;12560174;28;20044;-72
2023/12/11 16:59:38;;;;;;;53.15;42.55;;;9.40;86.80;;;;;;12560457;28;20347;-72
2023/12/11 17:05:39;;;;;;;46.00;32.20;;;9.70;86.30;;;;;;12542376;28;20032;-72
2023/12/11 17:12:09;;;;;;;36.72;31.40;;;9.90;85.60;;;;;;12560396;28;20040;-72
2023/12/11 17:18:10;;;;;;;38.72;31.50;;;9.60;85.60;;;;;;12559563;28;20048;-72
2023/12/11 17:24:15;;;;;;;45.03;39.30;;;9.70;85.60;;;;;;12559104;28;20028;-72
2023/12/11 17:30:18;;;;;;;43.53;37.70;;;9.70;85.40;;;;;;12558943;28;20040;-72
2023/12/11 17:36:20;;;;;;;50.95;44.05;;;9.80;85.00;;;;;;12558763;28;20359;-72
2023/12/11 17:42:22;;;;;;;46.45;38.30;;;9.80;85.00;;;;;;12559060;28;20067;-72
2023/12/11 17:48:23;;;;;;;37.78;32.72;;;9.90;84.50;;;;;;12557940;28;20036;-72
2023/12/11 17:54:25;;;;;;;50.67;37.45;;;9.60;84.20;;;;;;12557399;28;20040;-72
2023/12/11 18:00:28;;;;;;;58.20;43.53;;;9.30;84.90;;;;;;12557225;28;20032;-72
2023/12/11 18:06:31;;;;;;;45.13;37.08;;;9.50;84.80;;;;;;12556033;28;20036;-72
2023/12/11 18:12:33;;;;;;;46.88;38.50;;;9.70;84.20;;;;;;12556855;28;20025;-75
2023/12/11 18:18:35;;;;;;;46.72;37.78;;;9.70;84.20;;;;;;12542467;28;20034;-72
2023/12/11 18:24:37;;;;;;;66.07;49.75;;;9.70;84.20;;;;;;12506839;28;20037;-72
2023/12/11 18:30:39;;;;;;;49.80;41.78;;;9.40;84.30;;;;;;12506548;28;20044;-72
2023/12/11 18:36:41;;;;;;;42.85;38.17;;;9.40;84.00;;;;;;12529882;28;20028;-72
2023/12/11 18:42:46;;;;;;;61.95;49.38;;;9.00;84.20;;;;;;12537367;28;20029;-72
2023/12/11 18:48:48;;;;;;;54.78;49.00;;;8.90;84.60;;;;;;12555176;28;20040;-72
2023/12/11 18:54:51;;;;;;;64.32;57.92;;;9.00;84.30;;;;;;12553929;28;20060;-72
2023/12/11 19:00:52;;;;;;;69.93;63.30;;;8.70;84.20;;;;;;12554217;28;20064;-72
2023/12/11 19:06:54;;;;;;;90.70;83.70;;;8.80;84.40;;;;;;12553291;28;20040;-72
2023/12/11 19:12:55;;;;;;;83.50;76.55;;;8.80;84.30;;;;;;12553366;28;20041;-72
2023/12/11 19:18:57;;;;;;;60.35;54.78;;;8.90;84.30;;;;;;12552769;28;20355;-72
2023/12/11 19:24:58;;;;;;;55.63;49.63;;;9.00;84.40;;;;;;12553005;28;20045;-72
2023/12/11 19:31:00;;;;;;;121.90;113.57;;;8.60;84.40;;;;;;12552492;28;20047;-72
2023/12/11 19:37:04;;;;;;;96.53;89.95;;;8.40;84.80;;;;;;12552335;28;20378;-75
2023/12/11 19:43:06;;;;;;;92.28;86.15;;;8.40;84.70;;;;;;12553516;28;20375;-75
2023/12/11 19:49:10;;;;;;;121.10;112.60;;;8.50;84.60;;;;;;12551718;28;20452;-75
2023/12/11 19:55:14;;;;;;;166.50;156.88;;;8.60;84.60;;;;;;12535766;28;20033;-75
2023/12/11 20:01:25;;;;;;;173.68;160.95;;;8.60;84.30;;;;;;12553057;28;20063;-75
2023/12/11 20:07:27;;;;;;;104.97;97.63;;;8.50;84.50;;;;;;12553239;28;20029;-75
2023/12/11 20:13:54;;;;;;;95.75;88.32;;;8.50;84.50;;;;;;12552899;28;20033;-75
2023/12/11 20:19:59;;;;;;;79.03;72.82;;;8.60;84.50;;;;;;12552811;28;20036;-75
2023/12/11 20:26:06;;;;;;;75.38;68.95;;;8.70;84.20;;;;;;12519325;28;20049;-75
2023/12/11 20:32:08;;;;;;;175.30;165.25;;;8.60;83.90;;;;;;12561711;28;20040;-75
2023/12/11 20:38:10;;;;;;;203.80;192.25;;;8.10;84.30;;;;;;12527289;28;20045;-75
2023/12/11 20:44:12;;;;;;;159.75;150.50;;;7.80;84.80;;;;;;12561885;28;20431;-75
2023/12/11 20:50:13;;;;;;;189.75;180.23;;;7.80;84.90;;;;;;12560818;28;20041;-74
2023/12/11 20:56:36;;;;;;;180.18;169.50;;;7.70;85.10;;;;;;12560698;28;20359;-74
2023/12/11 21:02:38;;;;;;;186.38;177.13;;;7.90;85.20;;;;;;12560491;28;20040;-75
2023/12/11 21:08:42;;;;;;;194.30;184.02;;;7.90;84.70;;;;;;12560856;28;20064;-75
2023/12/11 21:14:43;;;;;;;158.63;148.88;;;7.80;85.00;;;;;;12559788;28;20032;-75
2023/12/11 21:20:45;;;;;;;184.20;174.52;;;7.80;84.80;;;;;;12559572;28;20025;-75
2023/12/11 21:26:46;;;;;;;157.15;147.95;;;8.00;85.20;;;;;;12559275;28;20347;-75
2023/12/11 21:32:48;;;;;;;204.80;193.00;;;8.30;85.10;;;;;;12558954;28;20048;-75
2023/12/11 21:38:50;;;;;;;90.78;84.90;;;8.50;85.00;;;;;;12540925;28;20047;-75
2023/12/11 21:44:52;;;;;;;170.95;162.38;;;8.50;84.60;;;;;;12558496;28;20029;-75
2023/12/11 21:50:53;;;;;;;226.02;214.80;;;8.10;84.60;;;;;;12557972;28;20343;-75
2023/12/11 21:56:55;;;;;;;190.63;180.68;;;7.70;85.00;;;;;;12557949;28;20033;-75
2023/12/11 22:02:56;;;;;;;201.90;191.55;;;7.70;85.40;;;;;;12557620;28;20431;-75
2023/12/11 22:08:58;;;;;;;175.85;166.35;;;8.10;85.60;;;;;;12557315;28;20436;-75
2023/12/11 22:15:00;;;;;;;179.48;169.95;;;8.30;85.20;;;;;;12556941;28;20044;-75
2023/12/11 22:21:02;;;;;;;160.35;151.52;;;8.20;84.80;;;;;;12522669;28;20478;-75
2023/12/11 22:27:05;;;;;;;183.27;174.20;;;8.10;85.10;;;;;;12557144;28;20033;-75
2023/12/11 22:33:09;;;;;;;138.55;130.43;;;7.70;85.00;;;;;;12556968;28;20064;-75
2023/12/11 22:39:10;;;;;;;108.82;102.22;;;7.30;85.20;;;;;;12555884;28;20029;-75
2023/12/11 22:45:13;;;;;;;143.07;135.55;;;7.50;85.30;;;;;;12521655;28;20329;-75
2023/12/11 22:51:24;;;;;;;149.48;141.98;;;7.50;85.20;;;;;;12572199;22;20442;-75
2023/12/11 22:57:27;;;;;;;109.50;102.40;;;7.30;85.00;;;;;;12570630;28;20039;-75
2023/12/11 23:03:29;;;;;;;151.40;143.02;;;7.40;85.00;;;;;;12604519;28;20036;-75
2023/12/11 23:09:30;;;;;;;156.15;147.88;;;7.50;84.90;;;;;;12586470;28;20036;-75
2023/12/11 23:15:32;;;;;;;134.52;125.93;;;7.40;84.50;;;;;;12604879;28;20020;-75
2023/12/11 23:21:34;;;;;;;146.27;137.80;;;7.20;85.00;;;;;;12586128;28;20032;-75
2023/12/11 23:27:36;;;;;;;174.63;165.13;;;7.60;85.20;;;;;;12585685;28;20044;-74
2023/12/11 23:33:56;;;;;;;177.82;169.27;;;7.70;85.30;;;;;;12568952;28;20044;-75
2023/12/11 23:39:59;;;;;;;186.50;176.55;;;7.70;84.90;;;;;;12585451;28;20331;-75
2023/12/11 23:46:08;;;;;;;181.32;171.30;;;7.60;84.60;;;;;;12603394;28;20036;-75
2023/12/11 23:52:09;;;;;;;136.38;128.90;;;7.70;84.60;;;;;;12585440;28;20351;-75
2023/12/11 23:58:11;;;;;;;109.35;102.72;;;7.40;84.40;;;;;;12603087;28;20029;-75
